Time;durP1;ratioP1;P1;durP2;ratioP2;P2;SDS_P1;SDS_P2;PMS_P1;PMS_P2;Temp;Humidity;BMP_temperature;BMP_pressure;BME280_temperature;BME280_humidity;BME280_pressure;Samples;Min_cycle;Max_cycle;Signal;HPM_P1;HPM_P2
2022/06/13 00:02:20;;;;;;;20.33;7.07;;;;;;;-145.76;100.00;65039.31;4903079;28;20049;-69
2022/06/13 00:04:45;;;;;;;17.63;7.32;;;;;;;-145.76;100.00;65039.31;4922076;28;23517;-67
2022/06/13 00:07:11;;;;;;;23.27;7.95;;;;;;;-145.76;100.00;65039.31;4918232;28;20677;-68
2022/06/13 00:09:36;;;;;;;17.13;7.75;;;;;;;-145.76;100.00;65039.31;4906442;28;20112;-68
2022/06/13 00:12:02;;;;;;;32.03;9.25;;;;;;;-145.76;100.00;65039.31;4921860;28;27497;-68
2022/06/13 00:14:27;;;;;;;21.08;7.97;;;;;;;-145.76;100.00;65039.31;4901854;28;20054;-68
2022/06/13 00:16:53;;;;;;;21.50;7.68;;;;;;;-145.76;100.00;65039.31;4921785;28;20116;-68
2022/06/13 00:19:18;;;;;;;24.70;8.48;;;;;;;-145.76;100.00;65039.31;4905356;28;20049;-68
2022/06/13 00:21:44;;;;;;;19.67;7.97;;;;;;;-145.76;100.00;65039.31;4921058;28;20039;-68
2022/06/13 00:24:09;;;;;;;21.95;8.35;;;;;;;-145.76;100.00;65039.31;4904098;28;20066;-68
2022/06/13 00:26:36;;;;;;;24.13;9.38;;;;;;;-145.76;100.00;65039.31;4917979;28;20030;-68
2022/06/13 00:29:02;;;;;;;28.00;8.88;;;;;;;-145.76;100.00;65039.31;4918529;28;20052;-69
2022/06/13 00:31:28;;;;;;;28.88;8.98;;;;;;;-145.76;100.00;65039.31;4908638;28;20042;-69
2022/06/13 00:33:54;;;;;;;22.02;8.93;;;;;;;-145.76;100.00;65039.31;4919500;28;20048;-68
2022/06/13 00:36:23;;;;;;;33.85;9.02;;;;;;;-145.76;100.00;65039.31;4904403;28;26289;-68
2022/06/13 00:38:50;;;;;;;22.00;8.55;;;;;;;-145.76;100.00;65039.31;4917575;28;20038;-68
2022/06/13 00:41:23;;;;;;;22.98;8.10;;;;;;;-145.76;100.00;65039.31;4922034;28;20149;-68
2022/06/13 00:43:49;;;;;;;;;;;;;;;-145.76;100.00;65039.31;4920601;28;20060;-68
2022/06/13 00:46:16;;;;;;;25.45;8.30;;;;;;;-145.76;100.00;65039.31;4919857;28;19929;-68
2022/06/13 00:48:41;;;;;;;35.38;9.88;;;;;;;-145.76;100.00;65039.31;4918685;28;20060;-70
2022/06/13 00:51:07;;;;;;;31.80;9.55;;;;;;;-145.76;100.00;65039.31;4915343;28;20399;-69
2022/06/13 00:53:34;;;;;;;25.15;7.38;;;;;;;-145.76;100.00;65039.31;4903549;28;20042;-69
2022/06/13 00:56:04;;;;;;;23.88;9.07;;;;;;;-145.76;100.00;65039.31;4919025;28;20035;-69
2022/06/13 00:58:33;;;;;;;21.92;8.55;;;;;;;-145.76;100.00;65039.31;4905012;28;20056;-69
2022/06/13 01:00:59;;;;;;;19.73;8.23;;;;;;;-145.76;100.00;65039.31;4911973;28;20034;-69
2022/06/13 01:03:27;;;;;;;20.58;7.90;;;;;;;-145.76;100.00;65039.31;4907649;28;20173;-69
2022/06/13 01:05:54;;;;;;;29.45;8.77;;;;;;;-145.76;100.00;65039.31;4919372;28;20044;-69
2022/06/13 01:08:22;;;;;;;29.70;8.70;;;;;;;-145.76;100.00;65039.31;4913042;28;20149;-69
2022/06/13 01:14:02;;;;;;;23.52;7.68;;;;;;;-145.76;100.00;65039.31;4920387;28;20037;-69
2022/06/13 01:16:46;;;;;;;20.67;8.60;;;;;;;-145.76;100.00;65039.31;4915717;28;20074;-68
2022/06/13 01:19:18;;;;;;;;;;;;;;;-145.76;100.00;65039.31;4920215;28;21141;-68
2022/06/13 01:21:49;;;;;;;16.95;7.28;;;;;;;-145.76;100.00;65039.31;4922738;28;20074;-68
2022/06/13 01:24:24;;;;;;;23.30;8.65;;;;;;;-145.76;100.00;65039.31;4921215;28;20485;-68
2022/06/13 01:27:30;;;;;;;24.05;8.40;;;;;;;-145.76;100.00;65039.31;4904362;28;20561;-68
2022/06/13 01:30:23;;;;;;;24.15;9.15;;;;;;;-145.76;100.00;65039.31;4898363;28;20284;-68
2022/06/13 01:32:56;;;;;;;24.83;9.63;;;;;;;-145.76;100.00;65039.31;4908335;28;20688;-68
2022/06/13 01:35:30;;;;;;;25.85;8.98;;;;;;;-145.76;100.00;65039.31;4915721;28;20041;-68
2022/06/13 01:38:14;;;;;;;22.83;8.98;;;;;;;-145.76;100.00;65039.31;4905590;28;20054;-68
2022/06/13 01:40:58;;;;;;;25.73;9.10;;;;;;;-145.76;100.00;65039.31;4914170;28;20077;-68
2022/06/13 01:43:37;;;;;;;;;;;;;;;-145.76;100.00;65039.31;4901348;28;20050;-68
2022/06/13 01:46:11;;;;;;;26.20;10.05;;;;;;;-145.76;100.00;65039.31;4913563;28;19924;-67
2022/06/13 01:48:42;;;;;;;27.58;10.25;;;;;;;-145.76;100.00;65039.31;4902186;28;20136;-67
2022/06/13 01:51:20;;;;;;;30.17;10.40;;;;;;;-145.76;100.00;65039.31;4915322;28;20172;-70
2022/06/13 01:54:00;;;;;;;24.38;10.93;;;;;;;-145.76;100.00;65039.31;4901732;28;20045;-68
2022/06/13 01:56:51;;;;;;;25.08;11.13;;;;;;;-145.76;100.00;65039.31;4916673;28;20120;-68
2022/06/13 01:59:23;;;;;;;37.05;11.27;;;;;;;-145.76;100.00;65039.31;4904563;28;20072;-68
2022/06/13 02:01:54;;;;;;;25.75;10.82;;;;;;;-145.76;100.00;65039.31;4916072;28;20148;-68
2022/06/13 02:04:28;;;;;;;30.55;11.10;;;;;;;-145.76;100.00;65039.31;4904932;28;20047;-68
2022/06/13 02:07:02;;;;;;;28.73;10.98;;;;;;;-145.76;100.00;65039.31;4921450;28;20030;-68
2022/06/13 02:09:31;;;;;;;29.83;11.50;;;;;;;-145.76;100.00;65039.31;4906980;28;20093;-68
2022/06/13 02:11:57;;;;;;;23.27;10.55;;;;;;;-145.76;100.00;65039.31;4919898;28;20030;-68
2022/06/13 02:14:38;;;;;;;31.23;11.50;;;;;;;-145.76;100.00;65039.31;4936128;28;20060;-68
2022/06/13 02:17:24;;;;;;;29.38;10.77;;;;;;;-145.76;100.00;65039.31;4906306;28;20133;-68
2022/06/13 02:20:02;;;;;;;27.38;10.95;;;;;;;-145.76;100.00;65039.31;4919657;28;20038;-68
2022/06/13 02:22:45;;;;;;;30.42;10.95;;;;;;;-145.76;100.00;65039.31;4888507;28;20418;-68
2022/06/13 02:25:17;;;;;;;31.25;10.70;;;;;;;-145.76;100.00;65039.31;4919113;28;20073;-69
2022/06/13 02:27:47;;;;;;;23.88;10.55;;;;;;;-145.76;100.00;65039.31;4923597;28;20065;-68
2022/06/13 02:30:17;;;;;;;24.05;10.88;;;;;;;-145.76;100.00;65039.31;4922581;28;20037;-68
2022/06/13 02:32:49;;;;;;;28.60;10.57;;;;;;;-145.76;100.00;65039.31;4891816;28;20054;-69
2022/06/13 02:35:41;;;;;;;32.13;11.02;;;;;;;-145.76;100.00;65039.31;4919379;28;20184;-68
2022/06/13 02:38:11;;;;;;;27.45;10.30;;;;;;;-145.76;100.00;65039.31;4886533;28;20050;-68
2022/06/13 02:40:43;;;;;;;27.23;11.80;;;;;;;-145.76;100.00;65039.31;4920616;28;20057;-69
2022/06/13 02:43:17;;;;;;;39.17;11.35;;;;;;;-145.76;100.00;65039.31;4905845;28;20042;-69
2022/06/13 02:45:51;;;;;;;29.17;12.38;;;;;;;-145.76;100.00;65039.31;4923818;28;20042;-69
2022/06/13 02:48:38;;;;;;;30.38;12.70;;;;;;;-145.76;100.00;65039.31;4904366;28;20989;-68
2022/06/13 02:51:07;;;;;;;35.15;12.05;;;;;;;-145.76;100.00;65039.31;4922510;28;20124;-68
2022/06/13 02:53:38;;;;;;;33.70;12.27;;;;;;;-145.76;100.00;65039.31;4920390;28;20096;-68
2022/06/13 02:56:29;;;;;;;29.88;12.38;;;;;;;-145.76;100.00;65039.31;4906293;28;20131;-68
2022/06/13 02:59:17;;;;;;;28.63;11.70;;;;;;;-145.76;100.00;65039.31;4921839;28;20053;-68
2022/06/13 03:01:47;;;;;;;26.67;11.38;;;;;;;-145.76;100.00;65039.31;4925525;28;20076;-68
2022/06/13 03:04:19;;;;;;;31.13;12.82;;;;;;;-145.76;100.00;65039.31;4922101;28;20034;-69
2022/06/13 03:07:07;;;;;;;30.77;11.10;;;;;;;-145.76;100.00;65039.31;4908018;28;20046;-69
2022/06/13 03:09:36;;;;;;;26.23;11.40;;;;;;;-145.76;100.00;65039.31;4918862;28;20623;-69
2022/06/13 03:12:41;;;;;;;34.50;12.23;;;;;;;-145.76;100.00;65039.31;4907452;28;20405;-69
2022/06/13 03:15:24;;;;;;;;;;;;;;;-145.76;100.00;65039.31;4923612;28;20108;-68
2022/06/13 03:18:02;;;;;;;37.58;12.30;;;;;;;-145.76;100.00;65039.31;4904178;28;19930;-69
2022/06/13 03:20:32;;;;;;;29.60;11.05;;;;;;;-145.76;100.00;65039.31;4920995;28;20117;-68
2022/06/13 03:23:03;;;;;;;30.92;11.65;;;;;;;-145.76;100.00;65039.31;4904919;28;20042;-68
2022/06/13 03:25:39;;;;;;;28.38;10.55;;;;;;;-145.76;100.00;65039.31;4920080;28;23773;-68
2022/06/13 03:28:14;;;;;;;25.63;9.70;;;;;;;-145.76;100.00;65039.31;4905607;28;20120;-68
2022/06/13 03:30:44;;;;;;;28.77;10.70;;;;;;;-145.76;100.00;65039.31;4931069;28;20038;-67
2022/06/13 03:36:03;;;;;;;23.65;8.23;;;;;;;-145.76;100.00;65039.31;4920491;28;20510;-68
2022/06/13 03:38:35;;;;;;;24.17;9.25;;;;;;;-145.76;100.00;65039.31;4903271;28;20078;-68
2022/06/13 03:41:02;;;;;;;33.05;9.10;;;;;;;-145.76;100.00;65039.31;4918115;28;20117;-68
2022/06/13 03:43:34;;;;;;;21.98;8.85;;;;;;;-145.76;100.00;65039.31;4899438;28;20199;-68
2022/06/13 03:46:07;;;;;;;22.35;8.32;;;;;;;-145.76;100.00;65039.31;4908940;28;20080;-68
2022/06/13 03:48:42;;;;;;;22.42;8.80;;;;;;;-145.76;100.00;65039.31;4899367;28;20683;-68
2022/06/13 03:51:13;;;;;;;29.00;9.05;;;;;;;-145.76;100.00;65039.31;4919585;28;20125;-68
2022/06/13 03:53:46;;;;;;;27.25;7.82;;;;;;;-145.76;100.00;65039.31;4916127;28;20042;-68
2022/06/13 03:56:28;;;;;;;23.58;8.30;;;;;;;-145.76;100.00;65039.31;4901083;28;20056;-68
2022/06/13 03:59:06;;;;;;;23.90;8.70;;;;;;;-145.76;100.00;65039.31;4917175;28;20045;-68
2022/06/13 04:01:41;;;;;;;22.10;8.10;;;;;;;-145.76;100.00;65039.31;4906786;28;20165;-68
2022/06/13 04:04:15;;;;;;;25.05;8.30;;;;;;;-145.76;100.00;65039.31;4918884;28;20072;-68
2022/06/13 04:06:44;;;;;;;20.67;9.02;;;;;;;-145.76;100.00;65039.31;4903898;28;20040;-67
2022/06/13 04:09:19;;;;;;;23.83;8.43;;;;;;;-145.76;100.00;65039.31;4918552;28;20049;-68
2022/06/13 04:12:29;;;;;;;21.58;7.78;;;;;;;-145.76;100.00;65039.31;4900614;28;20038;-68
2022/06/13 04:15:04;;;;;;;23.40;7.70;;;;;;;-145.76;100.00;65039.31;4918227;28;20080;-68
2022/06/13 04:17:57;;;;;;;29.08;8.45;;;;;;;-145.76;100.00;65039.31;4906852;28;20168;-68
2022/06/13 04:20:30;;;;;;;17.08;7.80;;;;;;;-145.76;100.00;65039.31;4920318;28;20046;-68
2022/06/13 04:23:33;;;;;;;23.90;7.68;;;;;;;-145.76;100.00;65039.31;4907116;28;20129;-68
2022/06/13 04:26:13;;;;;;;25.42;7.78;;;;;;;-145.76;100.00;65039.31;4932421;28;20038;-68
2022/06/13 04:28:46;;;;;;;25.27;6.85;;;;;;;-145.76;100.00;65039.31;4904218;28;20064;-68
2022/06/13 04:31:12;;;;;;;21.48;6.82;;;;;;;-145.76;100.00;65039.31;4918790;28;20046;-66
2022/06/13 04:33:45;;;;;;;18.98;7.05;;;;;;;-145.76;100.00;65039.31;4914791;28;20045;-68
2022/06/13 04:36:12;;;;;;;20.88;6.82;;;;;;;-145.76;100.00;65039.31;4906674;28;20103;-68
2022/06/13 04:38:44;;;;;;;17.70;6.35;;;;;;;-145.76;100.00;65039.31;4918068;28;20122;-67
2022/06/13 04:41:10;;;;;;;16.45;6.20;;;;;;;-145.76;100.00;65039.31;4899946;28;20103;-68
2022/06/13 04:43:40;;;;;;;18.40;6.00;;;;;;;-145.76;100.00;65039.31;4919336;28;20038;-68
2022/06/13 04:46:17;;;;;;;21.95;6.30;;;;;;;-145.76;100.00;65039.31;4896107;28;20045;-68
2022/06/13 04:48:45;;;;;;;13.93;5.15;;;;;;;-145.76;100.00;65039.31;4918477;28;20034;-68
2022/06/13 04:51:14;;;;;;;19.75;5.10;;;;;;;-145.76;100.00;65039.31;4905197;28;20473;-68
2022/06/13 04:54:14;;;;;;;13.82;5.18;;;;;;;-145.76;100.00;65039.31;4920313;28;23724;-70
2022/06/13 04:56:40;;;;;;;17.67;5.13;;;;;;;-145.76;100.00;65039.31;4905039;28;21044;-67
2022/06/13 04:59:05;;;;;;;12.38;4.00;;;;;;;-145.76;100.00;65039.31;4918133;28;20231;-68
2022/06/13 05:01:36;;;;;;;17.85;4.22;;;;;;;-145.76;100.00;65039.31;4916977;28;20049;-68
2022/06/13 05:04:04;;;;;;;15.23;4.68;;;;;;;-145.76;100.00;65039.31;4919521;28;20141;-68
2022/06/13 05:06:44;;;;;;;11.68;3.67;;;;;;;-145.76;100.00;65039.31;4920239;28;20042;-68
2022/06/13 05:09:09;;;;;;;18.33;4.43;;;;;;;-145.76;100.00;65039.31;4899327;28;20042;-68
2022/06/13 05:12:09;;;;;;;12.95;3.97;;;;;;;-145.76;100.00;65039.31;4922989;28;20057;-68
2022/06/13 05:14:56;;;;;;;13.70;4.60;;;;;;;-145.76;100.00;65039.31;4903141;28;20056;-68
2022/06/13 05:17:49;;;;;;;13.98;3.55;;;;;;;-145.76;100.00;65039.31;4920742;28;20144;-68
2022/06/13 05:20:33;;;;;;;12.18;3.17;;;;;;;-145.76;100.00;65039.31;4906543;28;20085;-68
2022/06/13 05:23:14;;;;;;;9.27;3.42;;;;;;;-145.76;100.00;65039.31;4919084;28;20038;-68
2022/06/13 05:25:43;;;;;;;15.23;3.50;;;;;;;-145.76;100.00;65039.31;4906979;28;20128;-66
2022/06/13 05:28:10;;;;;;;15.55;5.78;;;;;;;-145.76;100.00;65039.31;4916917;28;21293;-69
2022/06/13 05:30:36;;;;;;;15.35;4.57;;;;;;;-145.76;100.00;65039.31;4905919;28;20046;-67
2022/06/13 05:33:01;;;;;;;11.40;4.32;;;;;;;-145.76;100.00;65039.31;4918101;28;20133;-67
2022/06/13 05:35:30;;;;;;;10.50;3.67;;;;;;;-145.76;100.00;65039.31;4902459;28;20056;-66
2022/06/13 05:37:57;;;;;;;12.57;3.45;;;;;;;-145.76;100.00;65039.31;4918013;28;20046;-67
2022/06/13 05:40:23;;;;;;;15.02;4.07;;;;;;;-145.76;100.00;65039.31;4911539;28;20038;-67
2022/06/13 05:42:49;;;;;;;21.33;10.57;;;;;;;-145.76;100.00;65039.31;4906018;28;24125;-67
2022/06/13 05:45:17;;;;;;;23.83;10.13;;;;;;;-145.76;100.00;65039.31;4918888;28;20042;-66
2022/06/13 05:47:44;;;;;;;18.83;6.10;;;;;;;-145.76;100.00;65039.31;4906875;28;20133;-67
2022/06/13 05:50:15;;;;;;;7.20;2.00;;;;;;;-145.76;100.00;65039.31;4919054;28;21331;-67
2022/06/13 05:52:41;;;;;;;7.10;1.55;;;;;;;-145.76;100.00;65039.31;4914035;28;22841;-68
2022/06/13 05:55:07;;;;;;;5.70;1.50;;;;;;;-145.76;100.00;65039.31;4923979;28;20491;-68
2022/06/13 05:57:32;;;;;;;6.32;1.60;;;;;;;-145.76;100.00;65039.31;4903792;28;21192;-68
2022/06/13 05:59:57;;;;;;;5.90;1.75;;;;;;;-145.76;100.00;65039.31;4919509;28;20029;-68
2022/06/13 06:02:23;;;;;;;4.18;1.20;;;;;;;-145.76;100.00;65039.31;4923533;28;20037;-68
2022/06/13 06:04:48;;;;;;;3.15;1.25;;;;;;;-145.76;100.00;65039.31;4910983;28;20572;-68
2022/06/13 06:07:14;;;;;;;5.82;1.42;;;;;;;-145.76;100.00;65039.31;4924053;28;20034;-68
2022/06/13 06:09:39;;;;;;;8.35;3.40;;;;;;;-145.76;100.00;65039.31;4918058;28;20050;-68
2022/06/13 06:12:05;;;;;;;8.38;2.50;;;;;;;-145.76;100.00;65039.31;4919424;28;20635;-68
2022/06/13 06:14:30;;;;;;;6.57;1.63;;;;;;;-145.76;100.00;65039.31;4906832;28;20045;-68
2022/06/13 06:16:56;;;;;;;5.53;1.52;;;;;;;-145.76;100.00;65039.31;4920130;28;20050;-69
2022/06/13 06:19:22;;;;;;;9.82;2.65;;;;;;;-145.76;100.00;65039.31;4918021;28;20038;-68
2022/06/13 06:21:48;;;;;;;5.60;1.65;;;;;;;-145.76;100.00;65039.31;4903918;28;20046;-68
2022/06/13 06:24:13;;;;;;;7.30;1.70;;;;;;;-145.76;100.00;65039.31;4915587;28;20080;-68
2022/06/13 06:26:39;;;;;;;13.38;1.52;;;;;;;-145.76;100.00;65039.31;4896472;28;20049;-68
2022/06/13 06:29:04;;;;;;;6.40;1.52;;;;;;;-145.76;100.00;65039.31;4913837;28;20050;-68
2022/06/13 06:31:29;;;;;;;4.07;1.20;;;;;;;-145.76;100.00;65039.31;4901135;28;24068;-67
2022/06/13 06:33:55;;;;;;;3.80;1.08;;;;;;;-145.76;100.00;65039.31;4914076;28;20171;-67
2022/06/13 06:36:20;;;;;;;7.90;1.95;;;;;;;-145.76;100.00;65039.31;4899076;28;20300;-68
2022/06/13 06:38:47;;;;;;;6.85;1.35;;;;;;;-145.76;100.00;65039.31;4912256;28;20054;-68
2022/06/13 06:41:13;;;;;;;4.35;1.30;;;;;;;-145.76;100.00;65039.31;4915117;28;22284;-68
2022/06/13 06:43:38;;;;;;;6.22;1.55;;;;;;;-145.76;100.00;65039.31;4904691;28;20604;-68
2022/06/13 06:46:04;;;;;;;10.13;2.00;;;;;;;-145.76;100.00;65039.31;4922633;28;20042;-68
2022/06/13 06:48:29;;;;;;;10.85;2.70;;;;;;;-145.76;100.00;65039.31;4905274;28;20041;-69
2022/06/13 06:50:55;;;;;;;10.07;2.67;;;;;;;-145.76;100.00;65039.31;4921123;28;20045;-68
2022/06/13 06:53:23;;;;;;;12.60;2.20;;;;;;;-145.76;100.00;65039.31;4905907;28;20522;-70
2022/06/13 07:01:18;;;;;;;13.15;2.92;;;;;;;-145.76;100.00;65039.31;4909316;28;20038;-68
2022/06/13 07:03:44;;;;;;;11.30;3.30;;;;;;;-145.76;100.00;65039.31;4912746;28;24002;-69
2022/06/13 07:06:11;;;;;;;11.18;2.28;;;;;;;-145.76;100.00;65039.31;4894151;28;20065;-68
2022/06/13 07:08:37;;;;;;;12.68;3.70;;;;;;;-145.76;100.00;65039.31;4936867;28;20137;-68
2022/06/13 07:13:51;;;;;;;17.23;6.13;;;;;;;-145.76;100.00;65039.31;4921961;28;20038;-68
2022/06/13 07:16:17;;;;;;;13.57;3.22;;;;;;;-145.76;100.00;65039.31;4907486;28;20038;-69
2022/06/13 07:18:45;;;;;;;11.73;2.35;;;;;;;-145.76;100.00;65039.31;4904566;28;20631;-68
2022/06/13 07:21:11;;;;;;;9.43;1.98;;;;;;;-145.76;100.00;65039.31;4905774;28;20074;-69
2022/06/13 07:23:37;;;;;;;8.50;2.10;;;;;;;-145.76;100.00;65039.31;4920533;28;21062;-69
2022/06/13 07:26:03;;;;;;;12.60;2.13;;;;;;;-145.76;100.00;65039.31;4912323;28;20030;-70
2022/06/13 07:28:28;;;;;;;6.30;1.50;;;;;;;-145.76;100.00;65039.31;4921470;28;20042;-69
2022/06/13 07:30:54;;;;;;;14.90;4.95;;;;;;;-145.76;100.00;65039.31;4902381;28;24985;-72
2022/06/13 07:33:20;;;;;;;4.43;1.20;;;;;;;-145.76;100.00;65039.31;4907883;28;20771;-70
2022/06/13 07:35:45;;;;;;;10.23;1.95;;;;;;;-145.76;100.00;65039.31;4913965;28;20906;-68
2022/06/13 07:38:17;;;;;;;8.27;1.55;;;;;;;-145.76;100.00;65039.31;4904464;28;20049;-72
2022/06/13 07:40:47;;;;;;;7.85;1.63;;;;;;;-145.76;100.00;65039.31;4918753;28;24330;-72
2022/06/13 07:43:25;;;;;;;14.60;2.10;;;;;;;-145.76;100.00;65039.31;4902329;28;20041;-71
2022/06/13 07:45:51;;;;;;;9.85;1.90;;;;;;;-145.76;100.00;65039.31;4919520;28;20522;-71
2022/06/13 07:48:17;;;;;;;14.75;2.22;;;;;;;-145.76;100.00;65039.31;4913325;28;20026;-72
2022/06/13 07:50:43;;;;;;;8.80;2.13;;;;;;;-145.76;100.00;65039.31;4908473;28;20039;-72
2022/06/13 07:53:09;;;;;;;7.75;1.73;;;;;;;-145.76;100.00;65039.31;4901563;28;21563;-74
2022/06/13 07:55:34;;;;;;;11.52;1.85;;;;;;;-145.76;100.00;65039.31;4905092;28;20256;-73
2022/06/13 07:58:00;;;;;;;13.65;1.45;;;;;;;-145.76;100.00;65039.31;4936730;28;20048;-70
2022/06/13 08:00:30;;;;;;;8.90;2.00;;;;;;;-145.76;100.00;65039.31;4907340;28;20137;-70
2022/06/13 08:02:57;;;;;;;10.13;2.50;;;;;;;-145.76;100.00;65039.31;4919527;28;20041;-71
2022/06/13 08:05:23;;;;;;;9.93;1.85;;;;;;;-145.76;100.00;65039.31;4902966;28;20961;-70
2022/06/13 08:07:48;;;;;;;11.45;2.78;;;;;;;-145.76;100.00;65039.31;4921469;28;20033;-74
2022/06/13 08:10:14;;;;;;;9.82;1.50;;;;;;;-145.76;100.00;65039.31;4917513;28;20037;-74
2022/06/13 08:12:41;;;;;;;7.38;1.77;;;;;;;-145.76;100.00;65039.31;4891381;28;20038;-75
2022/06/13 08:15:10;;;;;;;9.13;1.23;;;;;;;-145.76;100.00;65039.31;4930186;28;20042;-76
2022/06/13 08:17:36;;;;;;;8.68;1.70;;;;;;;-145.76;100.00;65039.31;4912037;28;20046;-76
2022/06/13 08:20:02;;;;;;;10.43;2.35;;;;;;;-145.76;100.00;65039.31;4930471;28;20068;-77
2022/06/13 08:22:28;;;;;;;14.05;5.10;;;;;;;-145.76;100.00;65039.31;4921222;28;20038;-75
2022/06/13 08:24:53;;;;;;;13.50;3.28;;;;;;;-145.76;100.00;65039.31;4917158;28;20170;-74
2022/06/13 08:27:20;;;;;;;10.95;2.40;;;;;;;-145.76;100.00;65039.31;4903082;28;20127;-74
2022/06/13 08:29:45;;;;;;;10.57;4.78;;;;;;;-145.76;100.00;65039.31;4920089;28;20042;-74
2022/06/13 08:32:11;;;;;;;19.42;5.78;;;;;;;-145.76;100.00;65039.31;4917654;28;20608;-74
2022/06/13 08:34:37;;;;;;;10.68;4.15;;;;;;;-145.76;100.00;65039.31;4920296;28;20149;-72
2022/06/13 08:37:03;;;;;;;16.48;7.97;;;;;;;-145.76;100.00;65039.31;4920165;28;20214;-72
2022/06/13 08:39:29;;;;;;;12.90;4.32;;;;;;;-145.76;100.00;65039.31;4907510;28;20042;-73
2022/06/13 08:42:03;;;;;;;11.15;3.35;;;;;;;-145.76;100.00;65039.31;4918675;28;20041;-73
2022/06/13 08:44:47;;;;;;;11.68;3.08;;;;;;;-145.76;100.00;65039.31;4906794;28;20050;-73
2022/06/13 08:47:40;;;;;;;11.63;4.10;;;;;;;-145.76;100.00;65039.31;4908671;28;20069;-73
2022/06/13 08:50:17;;;;;;;11.38;3.92;;;;;;;-145.76;100.00;65039.31;4905070;28;20391;-73
2022/06/13 08:52:54;;;;;;;13.20;4.78;;;;;;;-145.76;100.00;65039.31;4919814;28;20030;-73
2022/06/13 08:55:30;;;;;;;14.70;5.95;;;;;;;-145.76;100.00;65039.31;4906362;28;20053;-72
2022/06/13 08:58:35;;;;;;;10.20;4.32;;;;;;;-145.76;100.00;65039.31;4919680;28;20064;-72
2022/06/13 09:01:05;;;;;;;11.50;2.50;;;;;;;-145.76;100.00;65039.31;4902875;28;20152;-72
2022/06/13 09:03:57;;;;;;;4.97;1.38;;;;;;;-145.76;100.00;65039.31;4918998;28;20097;-76
2022/06/13 09:07:04;;;;;;;11.45;3.65;;;;;;;-145.76;100.00;65039.31;4903352;28;20054;-76
2022/06/13 09:09:41;;;;;;;14.13;3.28;;;;;;;-145.76;100.00;65039.31;4917787;28;20050;-78
2022/06/13 09:12:09;;;;;;;17.33;4.15;;;;;;;-145.76;100.00;65039.31;4901638;28;20045;-77
2022/06/13 09:14:35;;;;;;;13.93;5.22;;;;;;;-145.76;100.00;65039.31;4918019;28;20073;-73
2022/06/13 09:17:15;;;;;;;13.93;4.53;;;;;;;-145.76;100.00;65039.31;4910374;28;20152;-74
2022/06/13 09:20:23;;;;;;;10.75;2.35;;;;;;;-145.76;100.00;65039.31;4921090;28;20060;-75
2022/06/13 09:23:18;;;;;;;8.52;2.90;;;;;;;-145.76;100.00;65039.31;4904227;28;20902;-74
2022/06/13 09:26:13;;;;;;;11.13;3.15;;;;;;;-145.76;100.00;65039.31;4920949;28;20074;-74
2022/06/13 09:29:08;;;;;;;10.02;1.85;;;;;;;-145.76;100.00;65039.31;4902626;28;20042;-75
2022/06/13 09:31:37;;;;;;;10.15;3.78;;;;;;;-145.76;100.00;65039.31;4917317;28;20148;-76
2022/06/13 09:34:09;;;;;;;16.58;6.28;;;;;;;-145.76;100.00;65039.31;4901215;28;20100;-75
2022/06/13 09:36:36;;;;;;;10.10;4.70;;;;;;;-145.76;100.00;65039.31;4933723;28;20251;-75
2022/06/13 09:39:06;;;;;;;12.55;4.85;;;;;;;-145.76;100.00;65039.31;4941304;28;20525;-72
2022/06/13 09:41:34;;;;;;;8.57;1.88;;;;;;;-145.76;100.00;65039.31;4915248;28;20113;-72
2022/06/13 09:44:37;;;;;;;10.57;2.78;;;;;;;-145.76;100.00;65039.31;4925584;28;22921;-72
2022/06/13 09:47:05;;;;;;;9.32;2.00;;;;;;;-145.76;100.00;65039.31;4916612;28;20060;-72
2022/06/13 09:49:49;;;;;;;7.13;1.90;;;;;;;-145.76;100.00;65039.31;4923650;28;20038;-73
2022/06/13 09:52:42;;;;;;;11.93;3.45;;;;;;;-145.76;100.00;65039.31;4909531;28;20038;-72
2022/06/13 09:55:23;;;;;;;12.60;4.68;;;;;;;-145.76;100.00;65039.31;4923900;28;21229;-72
2022/06/13 09:58:00;;;;;;;10.82;3.28;;;;;;;-145.76;100.00;65039.31;4909846;28;20990;-72
2022/06/13 10:01:04;;;;;;;12.27;3.30;;;;;;;-145.76;100.00;65039.31;4925621;28;20041;-72
2022/06/13 10:03:38;;;;;;;18.13;5.97;;;;;;;-145.76;100.00;65039.31;4912753;28;20088;-72
2022/06/13 10:06:12;;;;;;;10.60;3.10;;;;;;;-145.76;100.00;65039.31;4926263;28;20613;-72
2022/06/13 10:08:49;;;;;;;13.43;3.03;;;;;;;-145.76;100.00;65039.31;4912053;28;20385;-68
2022/06/13 10:11:17;;;;;;;10.75;3.75;;;;;;;-145.76;100.00;65039.31;4926044;28;20041;-69
2022/06/13 10:14:03;;;;;;;20.13;6.22;;;;;;;-145.76;100.00;65039.31;4910329;28;20046;-70
2022/06/13 10:16:29;;;;;;;10.88;2.35;;;;;;;-145.76;100.00;65039.31;4926913;28;20052;-70
2022/06/13 10:19:00;;;;;;;12.80;5.10;;;;;;;-145.76;100.00;65039.31;4908868;28;20050;-70
2022/06/13 10:21:28;;;;;;;14.15;5.40;;;;;;;-145.76;100.00;65039.31;4920351;28;20042;-70
2022/06/13 10:24:16;;;;;;;15.65;7.68;;;;;;;-145.76;100.00;65039.31;4907359;28;20046;-70
2022/06/13 10:26:47;;;;;;;20.02;7.90;;;;;;;-145.76;100.00;65039.31;4924144;28;20151;-70
2022/06/13 10:29:28;;;;;;;12.50;4.97;;;;;;;-145.76;100.00;65039.31;4909438;28;20402;-70
2022/06/13 10:32:03;;;;;;;9.02;2.08;;;;;;;-145.76;100.00;65039.31;4924249;28;20053;-69
2022/06/13 10:34:52;;;;;;;9.80;3.40;;;;;;;-145.76;100.00;65039.31;4921323;28;20060;-69
2022/06/13 10:38:05;;;;;;;9.60;3.50;;;;;;;-145.76;100.00;65039.31;4936880;28;20112;-70
2022/06/13 10:40:32;;;;;;;16.38;6.75;;;;;;;-145.76;100.00;65039.31;4887326;28;23747;-70
2022/06/13 10:42:58;;;;;;;16.88;6.38;;;;;;;-145.76;100.00;65039.31;4921939;28;20100;-69
2022/06/13 10:45:23;;;;;;;14.80;2.80;;;;;;;-145.76;100.00;65039.31;4922966;28;21020;-70
2022/06/13 10:47:57;;;;;;;17.27;5.78;;;;;;;-145.76;100.00;65039.31;4900500;28;20038;-69
2022/06/13 10:50:32;;;;;;;10.32;2.90;;;;;;;-145.76;100.00;65039.31;4919767;28;20037;-70
2022/06/13 10:53:00;;;;;;;8.00;2.30;;;;;;;-145.76;100.00;65039.31;4901971;28;20039;-70
2022/06/13 10:55:27;;;;;;;10.48;1.98;;;;;;;-145.76;100.00;65039.31;4918982;28;20042;-70
2022/06/13 10:57:58;;;;;;;15.15;4.47;;;;;;;-145.76;100.00;65039.31;4919445;28;21009;-70
2022/06/13 11:00:26;;;;;;;13.73;4.72;;;;;;;-145.76;100.00;65039.31;4924357;28;20049;-70
2022/06/13 11:02:52;;;;;;;14.18;2.75;;;;;;;-145.76;100.00;65039.31;4907302;28;20092;-70
2022/06/13 11:05:25;;;;;;;12.23;2.88;;;;;;;-145.76;100.00;65039.31;4936597;28;20498;-70
2022/06/13 11:08:01;;;;;;;14.07;5.00;;;;;;;-145.76;100.00;65039.31;4914524;28;20041;-68
2022/06/13 11:10:36;;;;;;;15.20;5.88;;;;;;;-145.76;100.00;65039.31;4918949;28;20134;-69
2022/06/13 11:13:04;;;;;;;21.98;7.88;;;;;;;-145.76;100.00;65039.31;4922625;28;20623;-69
2022/06/13 11:24:39;;;;;;;12.82;3.05;;;;;;;-145.76;100.00;65039.31;4914821;28;20780;-69
2022/06/13 11:30:20;;;;;;;10.35;2.83;;;;;;;-145.76;100.00;65039.31;4913839;28;20826;-69
2022/06/13 11:33:09;;;;;;;8.23;1.90;;;;;;;-145.76;100.00;65039.31;4910574;28;20080;-68
2022/06/13 11:35:47;;;;;;;9.93;2.13;;;;;;;-145.76;100.00;65039.31;4911082;28;23555;-68
2022/06/13 11:38:13;;;;;;;15.27;6.00;;;;;;;-145.76;100.00;65039.31;4905459;28;20222;-68
2022/06/13 11:40:38;;;;;;;9.32;1.95;;;;;;;-145.76;100.00;65039.31;4915405;28;21091;-69
2022/06/13 11:43:04;;;;;;;8.45;2.05;;;;;;;-145.76;100.00;65039.31;4895897;28;20049;-68
2022/06/13 11:45:30;;;;;;;24.42;5.40;;;;;;;-145.76;100.00;65039.31;4915457;28;20395;-69
2022/06/13 11:47:55;;;;;;;10.95;3.10;;;;;;;-145.76;100.00;65039.31;4898426;28;20058;-69
2022/06/13 11:50:30;;;;;;;11.75;4.32;;;;;;;-145.76;100.00;65039.31;4914089;28;20040;-68
2022/06/13 11:55:55;;;;;;;9.82;2.53;;;;;;;-145.76;100.00;65039.31;4912310;28;20041;-69
2022/06/13 11:58:37;;;;;;;8.40;2.45;;;;;;;-145.76;100.00;65039.31;4899731;28;20071;-69